createdAt,value
2017-07-04T00:00:13.015Z,1.97
2017-07-04T00:02:39.361Z,1.70
2017-07-04T00:05:05.797Z,2.07
2017-07-04T00:07:32.224Z,1.70
2017-07-04T00:09:58.636Z,2.30
2017-07-04T00:12:25.083Z,2.13
2017-07-04T00:14:51.489Z,2.00
2017-07-04T00:17:17.858Z,1.97
2017-07-04T00:19:44.227Z,1.60
2017-07-04T00:22:10.628Z,1.60
2017-07-04T00:24:37.016Z,1.63
2017-07-04T00:27:03.595Z,1.73
2017-07-04T00:29:30.024Z,1.90
2017-07-04T00:31:56.436Z,1.70
2017-07-04T00:34:22.855Z,2.20
2017-07-04T00:36:49.304Z,2.30
2017-07-04T00:39:15.729Z,2.10
2017-07-04T00:41:42.137Z,1.83
2017-07-04T00:44:08.565Z,2.00
2017-07-04T00:46:34.973Z,2.43
2017-07-04T00:49:01.406Z,2.40
2017-07-04T00:51:27.845Z,2.40
2017-07-04T00:53:54.256Z,2.03
2017-07-04T00:56:20.665Z,1.73
2017-07-04T00:58:47.112Z,2.10
2017-07-04T01:01:13.544Z,2.47
2017-07-04T01:03:39.967Z,2.43
2017-07-04T01:06:06.405Z,1.87
2017-07-04T01:08:32.839Z,1.90
2017-07-04T01:10:59.238Z,3.00
2017-07-04T01:13:25.729Z,2.23
2017-07-04T01:15:52.100Z,2.40
2017-07-04T01:18:18.563Z,2.40
2017-07-04T01:20:44.953Z,2.00
2017-07-04T01:23:11.592Z,1.60
2017-07-04T01:25:37.987Z,2.70
2017-07-04T01:28:04.380Z,2.40
2017-07-04T01:30:30.792Z,2.47
2017-07-04T01:32:57.217Z,2.10
2017-07-04T01:35:24.399Z,2.00
2017-07-04T01:37:50.836Z,2.00
2017-07-04T01:40:17.231Z,2.57
2017-07-04T01:42:43.684Z,2.20
2017-07-04T01:45:10.100Z,2.07
2017-07-04T01:47:36.532Z,2.60
2017-07-04T01:50:02.913Z,2.23
2017-07-04T01:52:29.324Z,1.90
2017-07-04T01:54:55.693Z,2.30
2017-07-04T01:57:22.887Z,2.40
2017-07-04T01:59:49.271Z,2.77
2017-07-04T02:02:16.466Z,2.23
2017-07-04T02:04:42.913Z,2.20
2017-07-04T02:07:09.305Z,2.17
2017-07-04T02:09:35.668Z,2.40
2017-07-04T02:12:02.175Z,2.20
2017-07-04T02:14:28.584Z,2.40
2017-07-04T02:16:54.971Z,1.83
2017-07-04T02:19:21.454Z,2.30
2017-07-04T02:21:47.855Z,2.10
2017-07-04T02:24:14.259Z,2.30
2017-07-04T02:26:40.771Z,2.37
2017-07-04T02:29:07.917Z,2.53
2017-07-04T02:31:34.343Z,2.30
2017-07-04T02:34:00.795Z,1.70
2017-07-04T02:36:27.208Z,2.37
2017-07-04T02:38:53.636Z,2.37
2017-07-04T02:41:20.075Z,1.93
2017-07-04T02:43:46.461Z,2.30
2017-07-04T02:46:12.848Z,2.10
2017-07-04T02:48:39.297Z,2.20
2017-07-04T02:51:05.705Z,2.80
2017-07-04T02:53:32.108Z,2.00
2017-07-04T02:55:58.536Z,2.70
2017-07-04T02:58:24.932Z,2.20
2017-07-04T03:00:51.375Z,2.03
2017-07-04T03:03:17.832Z,2.50
2017-07-04T03:05:44.237Z,1.90
2017-07-04T03:08:10.624Z,2.07
2017-07-04T03:10:38.116Z,2.50
2017-07-04T03:13:04.502Z,2.70
2017-07-04T03:15:30.972Z,2.90
2017-07-04T03:17:57.420Z,2.17
2017-07-04T03:20:23.880Z,2.55
2017-07-04T03:22:50.291Z,2.20
2017-07-04T03:25:16.716Z,2.50
2017-07-04T03:27:43.876Z,2.53
2017-07-04T03:30:10.283Z,2.27
2017-07-04T03:32:36.772Z,2.60
2017-07-04T03:35:03.186Z,2.13
2017-07-04T03:37:29.613Z,2.33
2017-07-04T03:39:55.999Z,2.20
2017-07-04T03:42:22.412Z,2.85
2017-07-04T03:44:49.660Z,2.87
2017-07-04T03:47:16.088Z,2.13
2017-07-04T03:49:42.487Z,2.87
2017-07-04T03:52:08.927Z,2.40
2017-07-04T03:54:35.325Z,2.23
2017-07-04T03:57:01.731Z,2.73
2017-07-04T03:59:28.188Z,2.10
2017-07-04T04:01:54.612Z,1.70
2017-07-04T04:04:22.159Z,2.13
2017-07-04T04:06:49.344Z,2.50
2017-07-04T04:09:15.794Z,2.23
2017-07-04T04:11:42.248Z,2.30
2017-07-04T04:14:08.695Z,2.30
2017-07-04T04:16:35.128Z,2.43
2017-07-04T04:19:01.568Z,2.23
2017-07-04T04:21:27.967Z,2.53
2017-07-04T04:23:55.420Z,2.50
2017-07-04T04:26:22.907Z,2.57
2017-07-04T04:28:49.363Z,2.40
2017-07-04T04:31:15.792Z,1.80
2017-07-04T04:33:42.239Z,2.63
2017-07-04T04:36:08.671Z,3.07
2017-07-04T04:38:35.260Z,2.60
2017-07-04T04:41:01.716Z,3.27
2017-07-04T04:43:28.112Z,2.53
2017-07-04T04:45:54.979Z,2.67
2017-07-04T04:48:21.347Z,2.93
2017-07-04T04:50:48.487Z,3.07
2017-07-04T04:53:14.920Z,2.53
2017-07-04T04:55:41.362Z,3.07
2017-07-04T04:58:07.748Z,2.60
2017-07-04T05:00:34.211Z,3.10
2017-07-04T05:03:00.616Z,3.50
2017-07-04T05:05:27.035Z,2.27
2017-07-04T05:07:53.484Z,2.67
2017-07-04T05:10:19.947Z,2.13
2017-07-04T05:12:46.388Z,2.43
2017-07-04T05:15:12.842Z,2.80
2017-07-04T05:17:39.268Z,3.37
2017-07-04T05:20:05.685Z,3.63
2017-07-04T05:22:32.089Z,3.53
2017-07-04T05:24:58.512Z,3.30
2017-07-04T05:27:24.897Z,3.80
2017-07-04T05:29:51.315Z,3.83
2017-07-04T05:32:17.724Z,3.80
2017-07-04T05:34:44.614Z,4.40
2017-07-04T05:37:11.112Z,4.30
2017-07-04T05:39:37.658Z,3.90
2017-07-04T05:42:04.086Z,3.80
2017-07-04T05:44:30.540Z,3.80
2017-07-04T05:46:56.988Z,4.10
2017-07-04T05:49:23.459Z,3.50
2017-07-04T05:51:49.880Z,3.80
2017-07-04T05:54:16.324Z,4.13
2017-07-04T05:56:42.710Z,3.60
2017-07-04T05:59:09.128Z,4.00
2017-07-04T06:01:35.596Z,3.70
2017-07-04T06:04:02.809Z,4.10
2017-07-04T06:06:29.980Z,4.10
2017-07-04T06:08:57.195Z,4.67
2017-07-04T06:11:23.588Z,3.90
2017-07-04T06:13:50.771Z,4.10
2017-07-04T06:16:17.895Z,3.47
2017-07-04T06:18:45.046Z,3.53
2017-07-04T06:21:11.471Z,3.80
2017-07-04T06:23:37.872Z,4.30
2017-07-04T06:26:04.247Z,4.37
2017-07-04T06:28:31.411Z,3.83
2017-07-04T06:30:58.604Z,4.67
2017-07-04T06:33:24.976Z,3.90
2017-07-04T06:35:51.420Z,4.80
2017-07-04T06:38:18.995Z,4.40
2017-07-04T06:40:45.377Z,4.90
2017-07-04T06:43:11.783Z,4.67
2017-07-04T06:45:38.204Z,4.30
2017-07-04T06:48:04.647Z,5.13
2017-07-04T06:50:31.047Z,5.23
2017-07-04T06:52:57.411Z,4.70
2017-07-04T06:55:23.774Z,5.10
2017-07-04T06:57:50.172Z,5.80
2017-07-04T07:00:16.687Z,4.80
2017-07-04T07:02:43.042Z,6.00
2017-07-04T07:05:09.451Z,5.30
2017-07-04T07:07:35.819Z,6.33
2017-07-04T07:10:02.255Z,5.13
2017-07-04T07:12:28.715Z,5.80
2017-07-04T07:14:55.087Z,4.83
2017-07-04T07:17:22.200Z,6.43
2017-07-04T07:19:49.387Z,6.37
2017-07-04T07:22:15.774Z,5.93
2017-07-04T07:24:42.908Z,5.80
2017-07-04T07:27:09.323Z,6.80
2017-07-04T07:29:35.691Z,7.40
2017-07-04T07:32:02.087Z,7.20
2017-07-04T07:34:28.572Z,6.73
2017-07-04T07:36:54.976Z,5.87
2017-07-04T07:39:21.406Z,5.53
2017-07-04T07:41:47.887Z,6.13
2017-07-04T07:44:15.324Z,5.70
2017-07-04T07:46:41.718Z,5.40
2017-07-04T07:49:08.226Z,5.00
2017-07-04T07:51:35.296Z,6.40
2017-07-04T07:54:01.676Z,4.83
2017-07-04T07:56:28.162Z,4.33
2017-07-04T07:58:54.623Z,4.50
2017-07-04T08:01:20.992Z,5.00
2017-07-04T08:03:47.448Z,4.60
2017-07-04T08:06:13.876Z,4.37
2017-07-04T08:08:40.252Z,5.00
2017-07-04T08:11:06.659Z,4.87
2017-07-04T08:13:33.780Z,5.27
2017-07-04T08:16:00.188Z,5.23
2017-07-04T08:18:27.381Z,3.73
2017-07-04T08:20:53.768Z,4.93
2017-07-04T08:23:20.188Z,4.77
2017-07-04T08:25:48.220Z,3.77
2017-07-04T08:28:15.380Z,3.40
2017-07-04T08:30:41.759Z,4.27
2017-07-04T08:33:08.961Z,3.70
2017-07-04T08:35:35.344Z,4.30
2017-07-04T08:38:02.467Z,4.57
2017-07-04T08:40:28.922Z,3.90
2017-07-04T08:42:55.330Z,5.33
2017-07-04T08:45:22.765Z,4.20
2017-07-04T08:47:49.191Z,4.27
2017-07-04T08:50:15.583Z,4.10
2017-07-04T08:52:42.704Z,4.23
2017-07-04T08:55:09.172Z,3.60
2017-07-04T08:57:35.559Z,3.27
2017-07-04T09:00:01.997Z,3.23
2017-07-04T09:02:28.386Z,3.47
2017-07-04T09:04:54.768Z,3.10
2017-07-04T09:07:21.195Z,2.80
2017-07-04T09:09:47.632Z,3.50
2017-07-04T09:12:14.035Z,4.40
2017-07-04T09:14:40.507Z,3.00
2017-07-04T09:17:06.915Z,3.47
2017-07-04T09:19:33.303Z,3.00
2017-07-04T09:21:59.704Z,2.43
2017-07-04T09:24:26.129Z,2.70
2017-07-04T09:26:52.579Z,2.90
2017-07-04T09:29:20.059Z,2.90
2017-07-04T09:31:47.215Z,3.00
2017-07-04T09:34:13.651Z,3.17
2017-07-04T09:36:40.052Z,4.07
2017-07-04T09:39:06.415Z,3.00
2017-07-04T09:41:32.807Z,2.93
2017-07-04T09:43:59.223Z,2.70
2017-07-04T09:46:25.664Z,3.33
2017-07-04T09:48:53.132Z,3.10
2017-07-04T09:51:19.571Z,3.50
2017-07-04T09:53:45.963Z,2.80
2017-07-04T09:56:12.387Z,2.70
2017-07-04T09:58:38.784Z,2.27
2017-07-04T10:01:05.203Z,2.33
2017-07-04T10:03:31.621Z,2.40
2017-07-04T10:05:59.107Z,3.13
2017-07-04T10:08:25.523Z,2.70
2017-07-04T10:10:51.924Z,3.10
2017-07-04T10:13:18.355Z,2.73
2017-07-04T10:15:45.857Z,2.80
2017-07-04T10:18:12.275Z,2.73
2017-07-04T10:20:38.669Z,2.70
2017-07-04T10:23:05.112Z,3.20
2017-07-04T10:25:31.511Z,3.77
2017-07-04T10:27:57.915Z,3.07
2017-07-04T10:30:24.308Z,3.33
2017-07-04T10:32:50.689Z,3.20
2017-07-04T10:35:17.088Z,3.53
2017-07-04T10:37:43.503Z,2.97
2017-07-04T10:40:09.960Z,3.70
2017-07-04T10:42:37.191Z,3.10
2017-07-04T10:45:03.585Z,3.07
2017-07-04T10:47:29.992Z,3.80
2017-07-04T10:49:56.411Z,3.30
2017-07-04T10:52:23.563Z,3.33
2017-07-04T10:54:49.949Z,3.30
2017-07-04T10:57:16.385Z,3.57
2017-07-04T10:59:43.593Z,3.57
2017-07-04T11:02:09.972Z,2.70
2017-07-04T11:04:36.373Z,3.00
2017-07-04T11:07:02.763Z,3.07
2017-07-04T11:09:29.120Z,3.30
2017-07-04T11:11:55.567Z,2.80
2017-07-04T11:14:21.965Z,2.97
2017-07-04T11:16:48.371Z,2.80
2017-07-04T11:19:14.844Z,2.60
2017-07-04T11:21:41.234Z,2.47
2017-07-04T11:24:07.601Z,3.30
2017-07-04T11:26:34.035Z,2.70
2017-07-04T11:29:00.386Z,2.47
2017-07-04T11:31:26.783Z,2.73
2017-07-04T11:33:53.180Z,2.83
2017-07-04T11:36:19.598Z,2.40
2017-07-04T11:38:46.717Z,2.80
2017-07-04T11:41:13.120Z,2.77
2017-07-04T11:43:39.513Z,2.10
2017-07-04T11:46:05.900Z,2.73
2017-07-04T11:48:32.337Z,2.73
2017-07-04T11:50:59.528Z,2.73
2017-07-04T11:53:25.900Z,3.00
2017-07-04T11:55:52.291Z,2.37
2017-07-04T11:58:18.689Z,2.40
2017-07-04T12:00:45.067Z,2.30
2017-07-04T12:03:12.255Z,2.03
2017-07-04T12:05:38.695Z,2.17
2017-07-04T12:08:05.128Z,2.33
2017-07-04T12:10:32.324Z,1.70
2017-07-04T12:12:58.743Z,2.37
2017-07-04T12:15:25.134Z,2.23
2017-07-04T12:17:51.511Z,2.23
2017-07-04T12:20:17.987Z,2.80
2017-07-04T12:22:44.627Z,2.30
2017-07-04T12:25:11.013Z,1.80
2017-07-04T12:27:37.590Z,2.50
2017-07-04T12:30:04.798Z,2.13
2017-07-04T12:32:31.113Z,2.30
2017-07-04T12:34:58.252Z,2.40
2017-07-04T12:37:24.599Z,2.63
2017-07-04T12:39:50.989Z,2.62
2017-07-04T12:42:17.377Z,2.63
2017-07-04T12:44:43.793Z,2.27
2017-07-04T12:47:10.204Z,2.50
2017-07-04T12:49:36.639Z,3.60
2017-07-04T12:52:03.053Z,2.13
2017-07-04T12:54:29.431Z,2.23
2017-07-04T12:56:55.833Z,2.70
2017-07-04T12:59:22.308Z,2.70
2017-07-04T13:01:48.700Z,2.27
2017-07-04T13:04:15.140Z,2.37
2017-07-04T13:06:42.688Z,2.43
2017-07-04T13:09:09.079Z,2.50
2017-07-04T13:11:35.497Z,1.90
2017-07-04T13:14:01.882Z,2.40
2017-07-04T13:16:28.664Z,2.43
2017-07-04T13:18:57.063Z,2.07
2017-07-04T13:21:23.527Z,2.20
2017-07-04T13:23:49.924Z,4.67
2017-07-04T13:26:16.531Z,1.93
2017-07-04T13:28:43.143Z,3.60
2017-07-04T13:31:09.540Z,3.80
2017-07-04T13:33:35.945Z,2.87
2017-07-04T13:36:02.353Z,2.63
2017-07-04T13:38:28.804Z,2.40
2017-07-04T13:40:55.240Z,2.23
2017-07-04T13:43:21.768Z,2.07
2017-07-04T13:45:48.204Z,2.40
2017-07-04T13:48:14.636Z,2.07
2017-07-04T13:50:41.040Z,2.00
2017-07-04T13:53:07.397Z,1.80
2017-07-04T13:55:34.543Z,1.90
2017-07-04T13:58:01.653Z,2.20
2017-07-04T14:00:28.217Z,2.40
2017-07-04T14:02:54.745Z,1.90
2017-07-04T14:05:21.141Z,2.70
2017-07-04T14:07:47.548Z,1.77
2017-07-04T14:10:13.937Z,2.23
2017-07-04T14:12:40.284Z,1.90
2017-07-04T14:15:07.408Z,2.00
2017-07-04T14:17:33.943Z,1.47
2017-07-04T14:20:00.360Z,1.57
2017-07-04T14:22:26.704Z,1.60
2017-07-04T14:24:53.089Z,2.10
2017-07-04T14:27:20.240Z,2.37
2017-07-04T14:29:46.620Z,2.20
2017-07-04T14:32:13.808Z,2.50
2017-07-04T14:34:40.169Z,2.53
2017-07-04T14:37:06.534Z,1.93
2017-07-04T14:39:32.952Z,2.03
2017-07-04T14:41:59.329Z,2.00
2017-07-04T14:44:25.709Z,2.20
2017-07-04T14:46:52.904Z,2.03
2017-07-04T14:49:19.268Z,2.30
2017-07-04T14:51:46.776Z,1.90
2017-07-04T14:54:13.211Z,2.60
2017-07-04T14:56:39.617Z,1.67
2017-07-04T14:59:05.991Z,2.27
2017-07-04T15:01:33.376Z,2.03
2017-07-04T15:03:59.752Z,1.97
2017-07-04T15:06:26.869Z,2.10
2017-07-04T15:08:53.277Z,1.93
2017-07-04T15:11:20.391Z,2.17
2017-07-04T15:13:46.782Z,1.90
2017-07-04T15:16:13.176Z,2.13
2017-07-04T15:18:39.537Z,2.50
2017-07-04T15:21:05.991Z,2.13
2017-07-04T15:23:32.395Z,2.40
2017-07-04T15:25:58.833Z,1.90
2017-07-04T15:28:25.236Z,1.93
2017-07-04T15:30:51.632Z,2.00
2017-07-04T15:33:18.064Z,2.37
2017-07-04T15:35:44.484Z,1.93
2017-07-04T15:38:10.964Z,2.23
2017-07-04T15:40:37.400Z,2.30
2017-07-04T15:43:03.817Z,2.70
2017-07-04T15:45:30.268Z,2.50
2017-07-04T15:47:56.722Z,3.27
2017-07-04T15:50:23.116Z,2.50
2017-07-04T15:52:49.528Z,2.57
2017-07-04T15:55:16.029Z,2.97
2017-07-04T15:57:42.591Z,2.03
2017-07-04T16:00:09.072Z,2.30
2017-07-04T16:02:35.488Z,2.07
2017-07-04T16:05:02.088Z,2.00
2017-07-04T16:07:29.284Z,2.20
2017-07-04T16:09:55.787Z,1.77
2017-07-04T16:12:22.192Z,2.10
2017-07-04T16:14:48.601Z,3.10
2017-07-04T16:17:14.996Z,2.30
2017-07-04T16:19:41.388Z,2.03
2017-07-04T16:22:07.827Z,2.00
2017-07-04T16:24:34.236Z,2.30
2017-07-04T16:27:00.648Z,2.50
2017-07-04T16:29:27.052Z,2.00
2017-07-04T16:31:53.456Z,2.13
2017-07-04T16:34:19.812Z,1.80
2017-07-04T16:36:46.218Z,1.90
2017-07-04T16:39:13.401Z,3.07
2017-07-04T16:41:39.800Z,2.50
2017-07-04T16:44:06.222Z,2.30
2017-07-04T16:46:33.658Z,2.37
2017-07-04T16:49:00.071Z,2.33
2017-07-04T16:51:26.492Z,2.43
2017-07-04T16:53:52.998Z,2.47
2017-07-04T16:56:19.520Z,2.60
2017-07-04T16:58:45.989Z,2.20
2017-07-04T17:01:14.136Z,2.50
2017-07-04T17:03:40.502Z,2.10
2017-07-04T17:06:07.648Z,2.20
2017-07-04T17:08:34.826Z,2.00
2017-07-04T17:11:01.192Z,2.07
2017-07-04T17:13:27.612Z,2.70
2017-07-04T17:15:54.752Z,2.20
2017-07-04T17:18:21.211Z,1.90
2017-07-04T17:20:47.632Z,2.17
2017-07-04T17:23:14.068Z,2.10
2017-07-04T17:25:40.432Z,1.90
2017-07-04T17:28:06.874Z,1.90
2017-07-04T17:30:33.275Z,2.47
2017-07-04T17:32:59.659Z,2.10
2017-07-04T17:35:26.099Z,2.30
2017-07-04T17:37:52.465Z,1.77
2017-07-04T17:40:18.859Z,2.03
2017-07-04T17:42:45.274Z,2.20
2017-07-04T17:45:11.712Z,2.13
2017-07-04T17:47:38.128Z,1.97
2017-07-04T17:50:04.540Z,2.33
2017-07-04T17:52:30.907Z,2.33
2017-07-04T17:54:57.305Z,2.47
2017-07-04T17:57:23.672Z,2.40
2017-07-04T17:59:50.089Z,2.43
2017-07-04T18:02:16.459Z,2.00
2017-07-04T18:04:42.912Z,2.23
2017-07-04T18:07:09.340Z,1.90
2017-07-04T18:09:35.764Z,1.80
2017-07-04T18:12:02.175Z,2.20
2017-07-04T18:14:28.617Z,2.90
2017-07-04T18:16:55.008Z,2.00
2017-07-04T18:19:21.433Z,2.80
2017-07-04T18:21:48.679Z,2.10
2017-07-04T18:24:15.301Z,2.70
2017-07-04T18:26:41.783Z,2.27
2017-07-04T18:29:08.193Z,2.00
2017-07-04T18:31:34.568Z,2.37
2017-07-04T18:34:00.992Z,2.50
2017-07-04T18:36:27.425Z,2.30
2017-07-04T18:38:54.597Z,2.57
2017-07-04T18:41:21.048Z,2.63
2017-07-04T18:43:47.596Z,2.40
2017-07-04T18:46:14.092Z,2.30
2017-07-04T18:48:40.617Z,2.30
2017-07-04T18:51:07.105Z,2.27
2017-07-04T18:53:33.762Z,2.57
2017-07-04T18:56:01.112Z,2.07
2017-07-04T18:58:28.515Z,2.77
2017-07-04T19:00:55.054Z,2.73
2017-07-04T19:03:21.577Z,2.37
2017-07-04T19:05:48.448Z,2.50
2017-07-04T19:08:14.943Z,2.03
2017-07-04T19:10:41.668Z,2.50
2017-07-04T19:13:08.108Z,2.40
2017-07-04T19:15:34.744Z,3.17
2017-07-04T19:18:01.270Z,2.90
2017-07-04T19:20:27.744Z,2.37
2017-07-04T19:22:54.525Z,2.80
2017-07-04T19:25:21.499Z,3.53
2017-07-04T19:27:48.232Z,3.10
2017-07-04T19:30:15.148Z,3.10
2017-07-04T19:32:42.442Z,3.63
2017-07-04T19:35:09.624Z,3.47
2017-07-04T19:37:36.791Z,3.67
2017-07-04T19:40:04.033Z,3.60
2017-07-04T19:42:31.134Z,3.13
2017-07-04T19:44:58.070Z,3.50
2017-07-04T19:47:25.343Z,3.37
2017-07-04T19:49:52.394Z,3.20
2017-07-04T19:52:19.318Z,3.23
2017-07-04T19:54:46.593Z,3.37
2017-07-04T19:57:14.127Z,3.20
2017-07-04T19:59:41.558Z,2.70
2017-07-04T20:02:09.261Z,3.10
2017-07-04T20:04:36.930Z,3.33
2017-07-04T20:07:04.722Z,3.80
2017-07-04T20:09:32.714Z,4.03
2017-07-04T20:11:59.668Z,3.50
2017-07-04T20:14:26.357Z,3.73
2017-07-04T20:16:53.443Z,3.77
2017-07-04T20:19:20.377Z,3.07
2017-07-04T20:21:47.313Z,2.70
2017-07-04T20:24:14.449Z,3.40
2017-07-04T20:26:41.962Z,3.10
2017-07-04T20:29:08.921Z,2.93
2017-07-04T20:31:36.042Z,3.93
2017-07-04T20:34:03.633Z,3.13
2017-07-04T20:36:30.952Z,3.20
2017-07-04T20:38:58.230Z,3.57
2017-07-04T20:41:25.543Z,2.40
2017-07-04T20:43:52.374Z,2.93
2017-07-04T20:46:18.954Z,3.10
2017-07-04T20:48:46.323Z,3.47
2017-07-04T20:51:12.848Z,3.60
2017-07-04T20:53:40.124Z,2.97
2017-07-04T20:56:06.679Z,3.57
2017-07-04T20:58:33.180Z,3.90
2017-07-04T21:00:59.663Z,3.10
2017-07-04T21:03:26.090Z,2.90
2017-07-04T21:05:52.557Z,3.10
2017-07-04T21:08:18.962Z,3.20
2017-07-04T21:10:45.383Z,2.90
2017-07-04T21:13:11.830Z,4.00
2017-07-04T21:15:38.284Z,3.20
2017-07-04T21:18:04.888Z,3.10
2017-07-04T21:20:31.289Z,3.83
2017-07-04T21:22:57.703Z,3.03
2017-07-04T21:25:24.156Z,3.27
2017-07-04T21:27:51.334Z,3.50
2017-07-04T21:30:17.771Z,3.37
2017-07-04T21:32:44.140Z,3.60
2017-07-04T21:35:10.572Z,3.10
2017-07-04T21:37:37.781Z,3.63
2017-07-04T21:40:04.135Z,3.70
2017-07-04T21:42:30.548Z,3.63
2017-07-04T21:44:57.264Z,3.40
2017-07-04T21:47:24.527Z,3.00
2017-07-04T21:49:51.155Z,3.23
2017-07-04T21:52:17.801Z,3.00
2017-07-04T21:54:44.488Z,3.17
2017-07-04T21:57:10.992Z,3.40
2017-07-04T21:59:38.205Z,3.10
2017-07-04T22:02:05.063Z,3.40
2017-07-04T22:04:31.580Z,3.30
2017-07-04T22:06:58.969Z,3.10
2017-07-04T22:09:25.777Z,3.07
2017-07-04T22:11:52.579Z,4.03
2017-07-04T22:14:19.048Z,3.00
2017-07-04T22:16:45.430Z,3.57
2017-07-04T22:19:11.830Z,3.10
2017-07-04T22:21:39.329Z,3.40
2017-07-04T22:24:07.557Z,3.37
2017-07-04T22:26:34.012Z,3.57
2017-07-04T22:29:00.475Z,3.07
2017-07-04T22:31:26.901Z,3.27
2017-07-04T22:33:53.342Z,3.23
2017-07-04T22:36:19.831Z,2.70
2017-07-04T22:38:46.224Z,3.10
2017-07-04T22:41:12.656Z,3.57
2017-07-04T22:43:39.121Z,3.70
2017-07-04T22:46:05.504Z,3.40
2017-07-04T22:48:31.979Z,3.87
2017-07-04T22:50:58.363Z,3.53
2017-07-04T22:53:24.757Z,3.40
2017-07-04T22:55:51.205Z,3.30
2017-07-04T22:58:17.620Z,3.70
2017-07-04T23:00:44.012Z,3.43
2017-07-04T23:03:10.444Z,3.10
2017-07-04T23:05:36.856Z,3.10
2017-07-04T23:08:03.336Z,3.83
2017-07-04T23:10:29.744Z,3.60
2017-07-04T23:12:56.890Z,3.83
2017-07-04T23:15:23.720Z,3.30
2017-07-04T23:17:50.198Z,4.10
2017-07-04T23:20:17.348Z,3.93
2017-07-04T23:22:43.765Z,3.77
2017-07-04T23:25:10.188Z,3.83
2017-07-04T23:27:36.605Z,3.30
2017-07-04T23:30:03.060Z,3.80
2017-07-04T23:32:29.492Z,2.93
2017-07-04T23:34:55.888Z,3.67
2017-07-04T23:37:22.273Z,3.30
2017-07-04T23:39:48.701Z,3.73
2017-07-04T23:42:15.088Z,4.17
2017-07-04T23:44:42.260Z,3.50
2017-07-04T23:47:08.684Z,3.90
2017-07-04T23:49:35.072Z,4.20
2017-07-04T23:52:02.233Z,4.00
2017-07-04T23:54:28.673Z,3.60
2017-07-04T23:56:55.076Z,3.50
2017-07-04T23:59:21.467Z,3.83
